Alpine, TX (79830)

4:27 AM CST on December 09, 2016 (GMT -0600)
| | Change Station

Elev -9999 ft 0.00 °N, 0.00 °E | Updated

Partly Cloudy
Partly Cloudy
73 °F
Feels Like 73 °F
N
11
Wind Variable Wind from WNW
Gusts 18 mph

Today
High -- | Low -- °F
--% Chance of Precip.
Yesterday
High -- | Low -- °F
Precip. -- in
Pressure 30.49 in
Visibility 5.0 miles
Clouds Overcast 200 ft
Dew Point 9 °F
Humidity 9%
Rainfall --
Snow Depth Not available.
7:40 AM 5:54 PM
Waxing Gibbous, 72% visible
METAR KE38 091015Z AUTO 22003KT 5SM OVC002 M02/M03 A3049 RMK AO2 T10251030
Pressure 30.49 in
Visibility 5.0 miles
Clouds Overcast 200 ft
Dew Point 9 °F
Humidity 9%
Rainfall --
Snow Depth Not available.
7:40 AM 5:54 PM
Waxing Gibbous, 72% visible
METAR KE38 091015Z AUTO 22003KT 5SM OVC002 M02/M03 A3049 RMK AO2 T10251030

10-Day Weather Forecast

Almanac

Astronomy

Dec. 09, 2016 Rise Set
Actual Time
Civil Twilight
Nautical Twilight
Astronomical Twilight
Moon
Length of Visible Light
Length of Day
Tomorrow will be .
, % of the Moon is Illuminated

Today's Extremes

State Highs State Lows

Community

WunderPhotos

Upload Photos

1,956,378 photos uploaded!

WunderBlog® & News

Nearby

Air Quality

  Air Quality AQ Index Pollutant
Not available.

Snow Depth

Station Depth Elevation

Earthquake Activity

City Distance Mag. Time & Date
Minimum magnitude displayed is 2.5.

Coastal Water Temperatures

Place Temperature

Stations

Nearby Weather Stations

Station Location Temp. Windchill Dew Point Humidity Wind Precip. Elev Updated Type
                   

Watches & Warnings

There are currently no watches in effect.